Time;durP1;ratioP1;P1;durP2;ratioP2;P2;SDS_P1;SDS_P2;PMS_P1;PMS_P2;Temp;Humidity;BMP_temperature;BMP_pressure;BME280_temperature;BME280_humidity;BME280_pressure;Samples;Min_cycle;Max_cycle;Signal;HPM_P1;HPM_P2
2023/09/20 00:01:23;;;;;;;6.85;2.72;;;;;;;17.15;100.00;100820.66;4896676;29;20041;-71
2023/09/20 00:03:49;;;;;;;7.15;2.67;;;;;;;17.14;100.00;100820.94;4879443;29;20037;-70
2023/09/20 00:06:17;;;;;;;9.60;2.83;;;;;;;17.12;100.00;100823.03;4879613;29;20068;-70
2023/09/20 00:08:43;;;;;;;5.80;1.77;;;;;;;17.07;100.00;100808.41;4880008;29;20179;-71
2023/09/20 00:11:08;;;;;;;7.10;2.75;;;;;;;17.08;100.00;100823.53;4879707;29;20544;-71
2023/09/20 00:13:34;;;;;;;7.22;2.70;;;;;;;17.03;100.00;100818.03;4896256;29;20036;-71
2023/09/20 00:16:00;;;;;;;5.65;2.08;;;;;;;17.01;100.00;100817.44;4896547;29;20123;-71
2023/09/20 00:18:26;;;;;;;7.35;3.05;;;;;;;16.99;100.00;100811.47;4896317;29;20392;-71
2023/09/20 00:20:51;;;;;;;8.90;3.03;;;;;;;16.98;100.00;100812.53;4896184;29;20025;-71
2023/09/20 00:23:20;;;;;;;7.55;2.78;;;;;;;16.97;100.00;100812.78;4896318;29;20115;-71
2023/09/20 00:25:49;;;;;;;5.35;2.08;;;;;;;16.93;100.00;100804.38;4895876;29;20080;-70
2023/09/20 00:28:17;;;;;;;6.82;2.28;;;;;;;16.93;100.00;100817.84;4896119;29;20044;-71
2023/09/20 00:30:44;;;;;;;3.67;1.90;;;;;;;16.91;100.00;100814.56;4896200;29;20499;-71
2023/09/20 00:33:10;;;;;;;3.72;2.00;;;;;;;16.89;100.00;100813.97;4895981;29;20043;-71
2023/09/20 00:35:39;;;;;;;7.15;2.20;;;;;;;16.85;100.00;100808.25;4896028;29;20017;-71
2023/09/20 00:38:04;;;;;;;9.32;3.22;;;;;;;16.82;100.00;100803.34;4878999;29;20040;-71
2023/09/20 00:40:32;;;;;;;4.78;2.15;;;;;;;16.82;100.00;100806.03;4895880;29;20052;-70
2023/09/20 00:42:57;;;;;;;4.10;2.42;;;;;;;16.79;100.00;100808.38;4895799;29;20496;-71
2023/09/20 00:45:23;;;;;;;5.82;2.35;;;;;;;16.80;100.00;100810.03;4895671;29;20032;-71
2023/09/20 00:47:58;;;;;;;4.63;2.08;;;;;;;16.74;100.00;100800.16;4895896;29;20156;-71
2023/09/20 00:50:31;;;;;;;7.85;2.60;;;;;;;16.75;100.00;100804.50;4878658;29;20454;-70
2023/09/20 00:52:57;;;;;;;9.35;2.42;;;;;;;16.71;100.00;100800.66;4896003;29;20033;-71
2023/09/20 00:55:25;;;;;;;3.92;1.77;;;;;;;16.68;100.00;100801.13;4895652;29;20083;-71
2023/09/20 00:57:54;;;;;;;5.03;2.08;;;;;;;16.66;100.00;100801.34;4895471;29;20504;-71
2023/09/20 01:00:27;;;;;;;7.72;2.50;;;;;;;16.66;100.00;100806.75;4895629;29;20544;-71
2023/09/20 01:02:55;;;;;;;6.45;2.22;;;;;;;16.61;100.00;100802.09;4895634;29;20048;-71
2023/09/20 01:05:25;;;;;;;3.08;2.03;;;;;;;16.60;100.00;100792.34;4894952;29;20137;-71
2023/09/20 01:07:55;;;;;;;4.35;1.80;;;;;;;16.53;100.00;100797.06;4895585;29;20043;-71
2023/09/20 01:10:23;;;;;;;7.07;2.35;;;;;;;16.53;100.00;100805.16;4895413;29;20064;-71
2023/09/20 01:12:57;;;;;;;4.70;1.67;;;;;;;16.53;100.00;100802.47;4895475;29;20036;-71
2023/09/20 01:15:24;;;;;;;5.88;2.30;;;;;;;16.54;100.00;100797.88;4895228;29;20032;-71
2023/09/20 01:17:58;;;;;;;6.68;2.08;;;;;;;16.54;100.00;100792.50;4878356;29;20400;-71
2023/09/20 01:20:32;;;;;;;5.80;2.08;;;;;;;16.54;100.00;100787.94;4895263;29;20080;-71
2023/09/20 01:22:58;;;;;;;6.40;1.98;;;;;;;16.52;100.00;100794.59;4895096;29;20036;-70
2023/09/20 01:25:25;;;;;;;7.25;2.30;;;;;;;16.48;100.00;100793.44;4894952;29;20029;-70
2023/09/20 01:28:00;;;;;;;5.95;2.15;;;;;;;16.46;100.00;100795.56;4894949;29;20039;-70
2023/09/20 01:30:31;;;;;;;5.00;1.83;;;;;;;16.43;100.00;100786.09;4894963;29;20504;-71
2023/09/20 01:33:00;;;;;;;6.63;2.57;;;;;;;16.39;100.00;100791.09;4894999;29;20024;-71
2023/09/20 01:35:29;;;;;;;9.95;2.50;;;;;;;16.37;100.00;100789.72;4894977;29;20288;-71
2023/09/20 01:37:58;;;;;;;6.07;1.92;;;;;;;16.35;100.00;100784.59;4894933;29;20477;-71
2023/09/20 01:40:26;;;;;;;6.40;2.85;;;;;;;16.30;100.00;100779.09;4894757;29;20057;-71
2023/09/20 01:42:58;;;;;;;3.53;2.00;;;;;;;16.25;100.00;100770.09;4893671;29;20036;-71
2023/09/20 01:45:24;;;;;;;5.95;2.30;;;;;;;16.28;100.00;100773.13;4894688;29;20028;-71
2023/09/20 01:47:54;;;;;;;6.68;2.13;;;;;;;16.21;100.00;100762.47;4894734;29;20028;-71
2023/09/20 01:50:24;;;;;;;3.42;2.13;;;;;;;16.23;100.00;100774.88;4894672;29;20060;-71
2023/09/20 01:52:54;;;;;;;5.80;2.30;;;;;;;16.20;100.00;100771.59;4894652;29;20144;-71
2023/09/20 01:55:21;;;;;;;4.70;2.10;;;;;;;16.21;100.00;100767.03;4894507;29;20032;-70
2023/09/20 01:57:51;;;;;;;6.88;2.20;;;;;;;16.19;100.00;100769.13;4894459;29;20480;-71
2023/09/20 02:00:22;;;;;;;5.95;1.98;;;;;;;16.14;100.00;100759.09;4894631;29;20028;-70
2023/09/20 02:02:57;;;;;;;6.87;1.70;;;;;;;16.17;100.00;100757.81;4893862;29;20033;-71
2023/09/20 02:05:23;;;;;;;3.38;1.55;;;;;;;16.15;100.00;100758.03;4894303;29;20804;-70
2023/09/20 02:07:51;;;;;;;7.35;2.38;;;;;;;16.15;100.00;100758.03;4877325;29;20145;-71
2023/09/20 02:10:17;;;;;;;7.97;2.47;;;;;;;16.12;100.00;100753.13;4894240;29;20043;-71
2023/09/20 02:12:59;;;;;;;5.93;2.20;;;;;;;16.10;100.00;100743.66;4894443;29;20036;-70
2023/09/20 02:15:27;;;;;;;5.75;2.20;;;;;;;16.09;100.00;100737.47;4894273;29;20036;-71
2023/09/20 02:17:53;;;;;;;8.00;2.13;;;;;;;16.11;100.00;100742.59;4894266;29;20377;-71
2023/09/20 02:20:20;;;;;;;5.88;2.78;;;;;;;16.07;100.00;100739.56;4894286;29;20079;-70
2023/09/20 02:22:50;;;;;;;11.77;3.55;;;;;;;16.10;100.00;100738.28;4894225;29;20032;-70
2023/09/20 02:25:20;;;;;;;4.28;2.42;;;;;;;16.13;100.00;100730.53;4894080;29;20388;-70
2023/09/20 02:27:47;;;;;;;6.20;2.28;;;;;;;16.11;100.00;100738.06;4894144;29;20095;-70
2023/09/20 02:30:24;;;;;;;7.32;3.15;;;;;;;16.15;100.00;100733.00;4894269;29;20040;-71
2023/09/20 02:32:52;;;;;;;6.45;2.28;;;;;;;16.17;100.00;100728.22;4894346;29;20084;-70
2023/09/20 02:35:18;;;;;;;7.25;2.80;;;;;;;16.14;100.00;100726.81;4894100;29;20020;-71
2023/09/20 02:37:43;;;;;;;6.65;2.30;;;;;;;16.21;100.00;100727.47;4893992;29;20060;-70
2023/09/20 02:40:13;;;;;;;4.38;1.90;;;;;;;16.25;100.00;100732.41;4894202;29;20037;-70
2023/09/20 02:42:46;;;;;;;6.95;2.30;;;;;;;16.29;100.00;100728.19;4893934;29;20560;-70
2023/09/20 02:45:19;;;;;;;4.78;2.13;;;;;;;16.33;100.00;100721.28;4893897;29;20056;-71
2023/09/20 02:47:48;;;;;;;5.25;2.45;;;;;;;16.32;100.00;100720.47;4894157;29;20575;-71
2023/09/20 02:50:23;;;;;;;8.75;1.95;;;;;;;16.37;100.00;100717.03;4893737;29;20040;-71
2023/09/20 02:52:49;;;;;;;8.75;3.33;;;;;;;16.40;100.00;100719.25;4892632;29;20528;-70
2023/09/20 02:55:17;;;;;;;8.77;2.25;;;;;;;16.38;100.00;100710.63;4893885;29;20507;-70
2023/09/20 02:57:49;;;;;;;5.70;2.15;;;;;;;16.41;100.00;100724.41;4893836;29;20037;-71
2023/09/20 03:00:21;;;;;;;7.05;2.40;;;;;;;16.39;100.00;100714.94;4893950;29;20024;-71
2023/09/20 03:02:49;;;;;;;5.47;2.25;;;;;;;16.42;100.00;100717.13;4893904;29;20503;-71
2023/09/20 03:05:21;;;;;;;8.00;2.72;;;;;;;16.44;100.00;100707.78;4893371;29;20128;-71
2023/09/20 03:07:48;;;;;;;4.68;2.15;;;;;;;16.45;100.00;100711.28;4893670;29;20055;-70
2023/09/20 03:10:15;;;;;;;8.75;2.70;;;;;;;16.46;100.00;100707.53;4893638;29;20123;-70
2023/09/20 03:12:44;;;;;;;6.32;2.70;;;;;;;16.46;100.00;100709.41;4894895;29;20048;-70
2023/09/20 03:15:23;;;;;;;5.35;2.38;;;;;;;16.44;100.00;100707.78;4880756;29;20060;-70
2023/09/20 03:17:52;;;;;;;8.40;2.63;;;;;;;16.43;100.00;100694.56;4897300;29;20120;-71
2023/09/20 03:20:23;;;;;;;9.70;2.58;;;;;;;16.42;100.00;100699.09;4897377;29;20028;-71
2023/09/20 03:22:53;;;;;;;;;;;;;;;16.45;100.00;100695.13;4897649;29;20031;-71
2023/09/20 03:25:22;;;;;;;5.07;2.00;;;;;;;16.40;100.00;100697.72;4897136;29;19915;-71
2023/09/20 03:27:48;;;;;;;4.30;1.77;;;;;;;16.38;100.00;100689.06;4897188;29;20054;-71
2023/09/20 03:30:16;;;;;;;7.88;2.42;;;;;;;16.36;100.00;100685.81;4897112;29;20104;-70
2023/09/20 03:32:44;;;;;;;8.25;2.65;;;;;;;16.30;100.00;100684.06;4897191;29;20028;-71
2023/09/20 03:35:12;;;;;;;7.43;2.72;;;;;;;16.25;100.00;100682.09;4896597;29;20119;-70
2023/09/20 03:37:41;;;;;;;5.85;3.63;;;;;;;16.27;100.00;100687.22;4895676;29;20142;-71
2023/09/20 03:40:11;;;;;;;4.38;2.25;;;;;;;16.23;100.00;100689.56;4897062;29;20040;-70
2023/09/20 03:42:40;;;;;;;5.95;2.55;;;;;;;16.16;100.00;100692.38;4897017;29;20119;-70
2023/09/20 03:45:10;;;;;;;7.18;2.03;;;;;;;16.16;100.00;100699.66;4896723;29;20036;-71
2023/09/20 03:47:39;;;;;;;8.38;3.30;;;;;;;16.11;100.00;100699.53;4896781;29;20028;-70
2023/09/20 03:50:06;;;;;;;6.93;2.63;;;;;;;16.08;100.00;100695.44;4896864;29;20070;-70
2023/09/20 03:52:32;;;;;;;5.55;2.30;;;;;;;16.07;100.00;100701.09;4896743;29;20515;-70
2023/09/20 03:54:57;;;;;;;4.60;2.58;;;;;;;16.05;100.00;100703.19;4896370;29;20029;-70
2023/09/20 03:57:24;;;;;;;6.57;2.67;;;;;;;16.03;100.00;100705.28;4879594;29;20048;-70
2023/09/20 03:59:53;;;;;;;4.85;1.90;;;;;;;16.02;100.00;100704.47;4896724;29;20055;-70
2023/09/20 04:02:19;;;;;;;6.13;3.00;;;;;;;16.00;100.00;100698.50;4896484;29;20038;-70
2023/09/20 04:04:46;;;;;;;7.75;2.92;;;;;;;15.98;100.00;100692.53;4896469;29;20637;-71
2023/09/20 04:07:11;;;;;;;5.43;3.08;;;;;;;15.92;100.00;100688.13;4896563;29;20045;-71
2023/09/20 04:09:36;;;;;;;5.00;2.50;;;;;;;15.91;100.00;100689.19;4896573;29;20063;-70
2023/09/20 04:12:06;;;;;;;11.30;2.42;;;;;;;15.83;100.00;100687.66;4896510;29;20064;-70
2023/09/20 04:14:31;;;;;;;7.97;2.10;;;;;;;15.85;100.00;100693.63;4896407;29;20029;-71
2023/09/20 04:16:56;;;;;;;5.75;2.40;;;;;;;15.78;100.00;100682.19;4896468;29;20400;-70
2023/09/20 04:19:22;;;;;;;4.47;2.28;;;;;;;15.76;100.00;100687.78;4896177;29;20040;-70
2023/09/20 04:21:48;;;;;;;5.63;2.05;;;;;;;15.82;100.00;100682.50;4895114;29;20116;-70
2023/09/20 04:24:17;;;;;;;8.02;3.08;;;;;;;15.80;100.00;100679.22;4895565;29;20041;-71
2023/09/20 04:26:42;;;;;;;5.13;2.28;;;;;;;15.80;100.00;100677.38;4896019;29;20477;-71
2023/09/20 04:29:08;;;;;;;7.90;2.42;;;;;;;15.78;100.00;100671.41;4896231;29;20043;-70
2023/09/20 04:31:33;;;;;;;7.30;2.10;;;;;;;15.79;100.00;100675.72;4895980;29;20120;-71
2023/09/20 04:34:00;;;;;;;3.97;2.50;;;;;;;15.75;100.00;100659.25;4896121;29;20060;-71
2023/09/20 04:36:28;;;;;;;6.75;2.45;;;;;;;15.79;100.00;100662.28;4879273;29;20392;-71
2023/09/20 04:38:56;;;;;;;7.47;2.80;;;;;;;15.79;100.00;100656.91;4895928;29;20034;-71
2023/09/20 04:41:22;;;;;;;5.13;2.38;;;;;;;15.73;100.00;100655.16;4895891;29;20108;-71
2023/09/20 04:43:48;;;;;;;6.68;2.97;;;;;;;15.77;100.00;100651.78;4878809;29;20127;-71
2023/09/20 04:46:14;;;;;;;4.97;2.10;;;;;;;15.76;100.00;100652.00;4895833;29;20060;-70
2023/09/20 04:48:40;;;;;;;5.32;2.25;;;;;;;15.65;100.00;100634.81;4895829;29;20481;-71
2023/09/20 04:51:06;;;;;;;3.65;2.28;;;;;;;15.75;100.00;100658.44;4895859;29;20061;-71
2023/09/20 04:53:33;;;;;;;5.95;2.97;;;;;;;15.73;100.00;100650.59;4895494;29;20071;-71
2023/09/20 04:55:59;;;;;;;10.18;3.25;;;;;;;15.70;100.00;100650.28;4895488;29;20459;-71
2023/09/20 04:58:25;;;;;;;8.48;2.30;;;;;;;15.71;100.00;100660.78;4895269;29;20037;-71
2023/09/20 05:00:51;;;;;;;4.60;2.45;;;;;;;15.69;100.00;100656.69;4894235;29;20091;-71
2023/09/20 05:03:17;;;;;;;7.05;2.55;;;;;;;15.67;100.00;100659.59;4895725;29;20429;-71
2023/09/20 05:05:44;;;;;;;11.13;3.05;;;;;;;15.68;100.00;100657.72;4895527;29;20508;-71
2023/09/20 05:08:10;;;;;;;9.27;3.60;;;;;;;15.66;100.00;100657.13;4895824;29;20033;-71
2023/09/20 05:10:35;;;;;;;5.28;2.63;;;;;;;15.69;100.00;100659.38;4895788;29;20037;-71
2023/09/20 05:13:01;;;;;;;13.15;2.88;;;;;;;15.69;100.00;100656.69;4878687;29;20090;-70
2023/09/20 05:15:26;;;;;;;5.30;2.30;;;;;;;15.67;100.00;100654.22;4895638;29;20035;-71
2023/09/20 05:17:52;;;;;;;6.53;2.42;;;;;;;15.65;100.00;100653.63;4895061;29;20037;-71
2023/09/20 05:20:17;;;;;;;5.22;2.58;;;;;;;15.60;100.00;100644.63;4895551;29;20123;-71
2023/09/20 05:22:42;;;;;;;5.65;2.03;;;;;;;15.64;100.00;100649.31;4895277;29;20028;-71
2023/09/20 05:25:09;;;;;;;3.28;2.20;;;;;;;15.66;100.00;100649.06;4893151;29;20036;-71
2023/09/20 05:27:35;;;;;;;4.70;2.00;;;;;;;15.66;100.00;100646.38;4894475;29;20646;-71
2023/09/20 05:30:01;;;;;;;6.07;2.00;;;;;;;15.62;100.00;100642.53;4877554;29;20497;-71
2023/09/20 05:32:27;;;;;;;6.75;3.03;;;;;;;15.66;100.00;100649.06;4894932;29;20060;-71
2023/09/20 05:34:52;;;;;;;5.63;2.20;;;;;;;15.70;100.00;100648.41;4894531;29;20025;-71
2023/09/20 05:37:18;;;;;;;7.85;2.70;;;;;;;15.71;100.00;100643.81;4894252;29;20029;-71
2023/09/20 05:39:48;;;;;;;4.50;2.10;;;;;;;15.72;100.00;100648.97;4894998;29;20071;-71
2023/09/20 05:42:17;;;;;;;5.85;2.75;;;;;;;15.71;100.00;100636.56;4894606;29;20154;-71
2023/09/20 05:44:43;;;;;;;7.25;2.00;;;;;;;15.67;100.00;100640.78;4893947;29;20040;-71
2023/09/20 05:47:08;;;;;;;6.90;1.90;;;;;;;15.70;100.00;100637.63;4893745;29;20072;-71
2023/09/20 05:49:34;;;;;;;4.22;2.10;;;;;;;15.65;100.00;100634.00;4893710;29;20484;-71
2023/09/20 05:52:00;;;;;;;7.03;2.10;;;;;;;15.68;100.00;100637.03;4894850;29;20040;-71
2023/09/20 05:54:25;;;;;;;4.32;2.28;;;;;;;15.71;100.00;100641.94;4893591;29;20032;-71
2023/09/20 05:56:51;;;;;;;5.57;2.30;;;;;;;15.73;100.00;100637.16;4894767;29;20048;-71
2023/09/20 05:59:16;;;;;;;4.43;1.80;;;;;;;15.74;100.00;100636.09;4894610;29;20036;-70
2023/09/20 06:01:42;;;;;;;10.38;3.20;;;;;;;15.78;100.00;100641.84;4894622;29;20051;-71
2023/09/20 06:04:11;;;;;;;4.50;2.55;;;;;;;15.80;100.00;100641.59;4877514;29;20150;-71
2023/09/20 06:06:38;;;;;;;4.70;2.13;;;;;;;15.82;100.00;100642.19;4877566;29;20558;-71
2023/09/20 06:09:04;;;;;;;7.85;2.03;;;;;;;15.88;100.00;100646.63;4877628;29;20388;-71
2023/09/20 06:11:29;;;;;;;4.38;1.83;;;;;;;15.89;100.00;100649.06;4894722;29;20043;-71
2023/09/20 06:13:55;;;;;;;9.48;2.17;;;;;;;15.93;100.00;100647.53;4894397;29;20036;-71
2023/09/20 06:16:21;;;;;;;6.03;2.35;;;;;;;15.99;100.00;100643.09;4893384;29;20037;-71
2023/09/20 06:18:48;;;;;;;5.82;1.80;;;;;;;15.99;100.00;100637.72;4894143;29;20381;-71
2023/09/20 06:21:17;;;;;;;3.85;1.90;;;;;;;16.00;100.00;100632.06;4894269;29;20036;-71
2023/09/20 06:23:43;;;;;;;5.32;2.25;;;;;;;16.06;100.00;100634.88;4894383;29;20391;-71
2023/09/20 06:26:12;;;;;;;4.07;1.63;;;;;;;16.07;100.00;100631.94;4895331;29;20099;-71
2023/09/20 06:28:41;;;;;;;4.63;1.83;;;;;;;16.07;100.00;100639.22;4894208;29;20040;-71
2023/09/20 06:31:15;;;;;;;6.82;2.38;;;;;;;16.14;100.00;100637.22;4893783;29;20517;-70
2023/09/20 06:33:42;;;;;;;7.65;2.42;;;;;;;16.16;100.00;100635.06;4894416;29;20033;-70
2023/09/20 06:36:08;;;;;;;6.22;1.80;;;;;;;16.20;100.00;100636.25;4894114;29;20084;-70
2023/09/20 06:38:34;;;;;;;9.80;1.95;;;;;;;16.24;100.00;100636.56;4894307;29;20036;-70
2023/09/20 06:40:59;;;;;;;7.93;2.15;;;;;;;16.29;100.00;100639.38;4893818;29;20044;-70
2023/09/20 06:43:25;;;;;;;4.78;2.78;;;;;;;16.30;100.00;100632.94;4894289;29;20115;-70
2023/09/20 06:45:51;;;;;;;8.38;1.98;;;;;;;16.32;100.00;100634.34;4894222;29;20033;-71
2023/09/20 06:48:22;;;;;;;4.13;1.52;;;;;;;16.32;100.00;100631.66;4897390;29;20037;-70
2023/09/20 06:50:49;;;;;;;4.72;2.05;;;;;;;16.34;100.00;100628.69;4900240;29;20020;-70
2023/09/20 06:53:15;;;;;;;4.90;2.40;;;;;;;16.40;100.00;100643.88;4900405;29;20036;-71
2023/09/20 06:55:41;;;;;;;7.80;2.60;;;;;;;16.44;100.00;100640.47;4900208;29;20045;-73
2023/09/20 06:58:07;;;;;;;6.43;2.17;;;;;;;16.47;100.00;100631.09;4900312;29;20529;-71
2023/09/20 07:00:35;;;;;;;7.88;2.70;;;;;;;16.59;100.00;100633.75;4900130;29;20137;-74
2023/09/20 07:03:02;;;;;;;3.25;1.60;;;;;;;16.65;100.00;100636.28;4899954;29;20039;-70
2023/09/20 07:05:31;;;;;;;3.45;1.90;;;;;;;16.77;100.00;100649.72;4900154;29;20052;-70
2023/09/20 07:08:00;;;;;;;10.25;2.30;;;;;;;16.86;100.00;100647.44;4900098;29;20084;-70
2023/09/20 07:10:29;;;;;;;9.43;2.92;;;;;;;16.96;100.00;100634.16;4900133;29;20028;-71
2023/09/20 07:12:54;;;;;;;3.67;2.10;;;;;;;17.04;100.00;100635.63;4898918;29;20035;-70
2023/09/20 07:15:21;;;;;;;6.63;2.08;;;;;;;17.09;100.00;100641.91;4882937;29;20477;-67
2023/09/20 07:17:58;;;;;;;5.90;1.73;;;;;;;17.06;100.00;100631.63;4900263;29;20043;-70
2023/09/20 07:20:25;;;;;;;4.65;2.33;;;;;;;17.12;100.00;100626.31;4899974;29;20028;-70
2023/09/20 07:22:51;;;;;;;5.85;1.98;;;;;;;17.16;100.00;100625.59;4900002;29;20037;-70
2023/09/20 07:25:19;;;;;;;3.03;1.95;;;;;;;17.21;100.00;100625.66;4899848;29;20896;-70
2023/09/20 07:27:46;;;;;;;4.18;1.85;;;;;;;17.29;100.00;100624.41;4900098;29;20028;-70
2023/09/20 07:30:17;;;;;;;10.43;2.22;;;;;;;17.38;100.00;100620.22;4899729;29;20032;-70
2023/09/20 07:32:43;;;;;;;5.25;2.47;;;;;;;17.42;100.00;100617.84;4900084;29;20039;-71
2023/09/20 07:35:19;;;;;;;5.43;1.52;;;;;;;17.43;100.00;100627.59;4899947;29;20433;-70
2023/09/20 07:37:55;;;;;;;7.95;3.38;;;;;;;17.46;100.00;100625.19;4900039;29;20036;-69
2023/09/20 07:40:21;;;;;;;5.55;2.22;;;;;;;17.50;100.00;100620.13;4899971;29;20481;-70
2023/09/20 07:42:50;;;;;;;4.70;2.03;;;;;;;17.57;100.00;100626.16;4899613;29;20037;-71
2023/09/20 07:45:15;;;;;;;4.40;1.92;;;;;;;17.67;100.00;100626.31;4899582;29;20044;-71
2023/09/20 07:47:43;;;;;;;4.32;1.77;;;;;;;17.75;100.00;100623.16;4899641;29;20029;-71
2023/09/20 07:50:11;;;;;;;3.95;2.35;;;;;;;17.84;100.00;100628.16;4899755;29;20140;-72
2023/09/20 07:52:38;;;;;;;3.47;2.00;;;;;;;17.93;100.00;100626.66;4899670;29;20040;-71
2023/09/20 07:55:04;;;;;;;6.18;3.17;;;;;;;18.01;100.00;100628.94;4899415;29;20124;-71
2023/09/20 07:57:30;;;;;;;6.88;2.63;;;;;;;18.08;100.00;100632.25;4899554;29;20047;-72
2023/09/20 07:59:59;;;;;;;5.72;2.28;;;;;;;18.17;100.00;100632.63;4896879;29;20037;-71
2023/09/20 08:02:24;;;;;;;3.15;2.22;;;;;;;18.30;100.00;100634.13;4895526;29;20396;-71
2023/09/20 08:04:50;;;;;;;7.32;2.17;;;;;;;18.34;100.00;100629.84;4896666;29;20049;-72
2023/09/20 08:07:15;;;;;;;6.70;3.25;;;;;;;18.23;100.00;100614.59;4896435;29;20087;-71
2023/09/20 08:09:41;;;;;;;6.75;2.42;;;;;;;18.36;100.00;100616.88;4896499;29;20036;-71
2023/09/20 08:12:09;;;;;;;5.95;2.08;;;;;;;18.43;100.00;100612.13;4896254;29;20091;-74
2023/09/20 08:14:35;;;;;;;5.45;2.35;;;;;;;18.44;100.00;100615.63;4873540;29;20894;-75
2023/09/20 08:19:44;;;;;;;3.67;2.10;;;;;;;18.62;100.00;100628.75;4891293;29;20123;-74
2023/09/20 08:22:10;;;;;;;4.03;2.10;;;;;;;18.58;100.00;100614.16;4891251;29;20456;-74
2023/09/20 09:00:22;;;;;;;7.38;2.55;;;;;;;19.29;100.00;100651.00;4895905;29;20397;-73
2023/09/20 09:02:53;;;;;;;4.88;2.08;;;;;;;19.35;100.00;100642.63;4895923;29;20100;-73
2023/09/20 09:05:20;;;;;;;8.38;2.70;;;;;;;19.37;100.00;100651.31;4895290;29;20529;-73
2023/09/20 09:07:46;;;;;;;7.28;2.33;;;;;;;19.38;100.00;100658.34;4895730;29;20484;-73
2023/09/20 09:10:13;;;;;;;6.00;2.88;;;;;;;19.42;100.00;100648.66;4895882;29;20573;-73
2023/09/20 09:12:38;;;;;;;6.30;2.90;;;;;;;19.51;100.00;100658.97;4878685;29;20036;-74
2023/09/20 09:15:11;;;;;;;5.78;2.38;;;;;;;19.67;100.00;100653.41;4893948;29;20143;-74
2023/09/20 09:17:41;;;;;;;4.43;1.98;;;;;;;19.72;100.00;100639.09;4895540;29;20771;-74
2023/09/20 09:20:10;;;;;;;6.30;2.53;;;;;;;19.65;100.00;100638.50;4894225;29;20063;-74
2023/09/20 09:22:41;;;;;;;4.97;2.33;;;;;;;19.63;100.00;100637.94;4894793;29;20047;-74
2023/09/20 09:25:12;;;;;;;6.90;2.70;;;;;;;19.57;100.00;100642.53;4894748;29;20384;-74
2023/09/20 09:27:39;;;;;;;6.05;3.10;;;;;;;19.46;100.00;100655.16;4895437;29;20052;-74
2023/09/20 09:30:10;;;;;;;4.07;2.05;;;;;;;19.39;100.00;100632.94;4895307;29;20084;-74
2023/09/20 09:32:36;;;;;;;8.18;2.05;;;;;;;19.41;100.00;100635.38;4895329;29;20036;-73
2023/09/20 09:35:05;;;;;;;4.70;2.47;;;;;;;19.44;100.00;100642.97;4895380;29;20472;-74
2023/09/20 09:37:32;;;;;;;6.60;2.25;;;;;;;19.46;100.00;100632.69;4895258;29;20550;-74
2023/09/20 09:40:05;;;;;;;4.85;2.17;;;;;;;19.46;100.00;100638.09;4895103;29;20024;-74
2023/09/20 09:42:32;;;;;;;5.68;1.80;;;;;;;19.41;100.00;100644.31;4894694;29;20032;-74
2023/09/20 09:44:58;;;;;;;4.20;1.88;;;;;;;19.45;100.00;100640.00;4895320;29;20029;-74
2023/09/20 09:47:24;;;;;;;2.92;1.67;;;;;;;19.53;100.00;100638.69;4895090;29;20040;-74
2023/09/20 09:49:53;;;;;;;4.22;1.80;;;;;;;19.62;100.00;100633.59;4893553;29;20488;-75
2023/09/20 09:52:23;;;;;;;6.10;2.47;;;;;;;19.65;100.00;100633.09;4894890;29;20039;-75
2023/09/20 09:54:50;;;;;;;5.80;2.30;;;;;;;19.69;100.00;100636.94;4894708;29;20115;-75
2023/09/20 09:57:18;;;;;;;4.75;2.63;;;;;;;19.74;100.00;100636.94;4894616;29;20043;-75
2023/09/20 09:59:44;;;;;;;7.00;2.90;;;;;;;19.76;100.00;100623.19;4894752;29;20096;-75
2023/09/20 10:02:18;;;;;;;3.67;1.83;;;;;;;19.76;100.00;100615.06;4865295;29;20036;-75
2023/09/20 10:05:04;;;;;;;5.10;1.92;;;;;;;19.82;100.00;100625.63;4894440;29;20056;-75
2023/09/20 10:07:40;;;;;;;5.50;2.20;;;;;;;19.80;100.00;100611.53;4894175;29;20047;-75
2023/09/20 10:10:13;;;;;;;4.10;2.22;;;;;;;19.85;100.00;100611.56;4894682;29;20080;-71
2023/09/20 10:12:46;;;;;;;3.38;2.15;;;;;;;19.92;100.00;100605.91;4894421;29;20115;-73
2023/09/20 10:15:14;;;;;;;5.28;2.20;;;;;;;19.97;100.00;100611.34;4894428;29;20056;-73
2023/09/20 10:17:45;;;;;;;5.15;2.15;;;;;;;20.10;100.00;100605.44;4894674;29;20037;-73
2023/09/20 10:20:15;;;;;;;3.30;1.98;;;;;;;20.22;100.00;100607.88;4893232;29;20044;-73
2023/09/20 10:22:41;;;;;;;3.53;1.92;;;;;;;20.32;99.50;100599.78;4894215;29;20036;-73
2023/09/20 10:25:30;;;;;;;2.95;1.55;;;;;;;20.42;99.01;100603.63;4894285;29;20043;-72
2023/09/20 10:27:55;;;;;;;4.10;1.60;;;;;;;20.44;99.71;100604.16;4877408;29;20051;-73
2023/09/20 10:30:21;;;;;;;4.03;1.95;;;;;;;20.48;99.06;100600.63;4894245;29;20036;-73
2023/09/20 10:32:57;;;;;;;5.20;1.98;;;;;;;20.49;98.96;100605.00;4894194;29;20458;-74
2023/09/20 10:35:33;;;;;;;5.60;1.75;;;;;;;20.58;97.59;100597.16;4893650;29;20103;-73
2023/09/20 10:38:04;;;;;;;3.55;1.25;;;;;;;20.68;97.05;100601.78;4893948;29;20040;-74
2023/09/20 10:40:45;;;;;;;4.20;2.50;;;;;;;20.78;97.79;100596.38;4877518;29;20033;-74
2023/09/20 10:43:25;;;;;;;2.90;1.65;;;;;;;20.79;99.12;100592.56;4894265;29;20312;-73
2023/09/20 10:45:51;;;;;;;7.55;2.60;;;;;;;20.74;95.97;100579.81;4894093;29;20036;-74
2023/09/20 10:48:24;;;;;;;5.40;1.73;;;;;;;20.81;96.69;100592.31;4877685;29;20028;-74
2023/09/20 10:50:52;;;;;;;3.85;1.65;;;;;;;20.94;98.00;100583.63;4894276;29;20061;-74
2023/09/20 10:53:19;;;;;;;3.35;1.20;;;;;;;21.05;95.91;100573.56;4894455;29;20036;-74
2023/09/20 10:55:45;;;;;;;3.30;1.95;;;;;;;21.15;96.31;100577.09;4893987;29;20429;-74
2023/09/20 10:58:14;;;;;;;3.33;1.17;;;;;;;21.20;94.53;100574.38;4894432;29;20063;-74
2023/09/20 11:00:40;;;;;;;2.15;1.20;;;;;;;21.22;96.25;100568.66;4894457;29;20531;-74
2023/09/20 11:03:07;;;;;;;2.63;1.10;;;;;;;21.17;92.85;100564.06;4894077;29;20107;-74
2023/09/20 11:05:33;;;;;;;1.55;1.00;;;;;;;21.19;92.63;100555.63;4893856;29;20516;-74
2023/09/20 11:08:06;;;;;;;3.03;1.40;;;;;;;21.21;92.25;100575.16;4894022;29;20052;-74
2023/09/20 11:10:32;;;;;;;8.32;2.45;;;;;;;21.26;92.64;100552.66;4877482;29;20424;-74
2023/09/20 11:12:57;;;;;;;4.50;1.42;;;;;;;21.33;93.47;100556.69;4893876;29;20124;-74
2023/09/20 11:15:23;;;;;;;3.72;1.60;;;;;;;21.39;93.00;100554.81;4892739;29;20029;-74
2023/09/20 11:17:49;;;;;;;5.85;1.98;;;;;;;21.38;91.88;100554.00;4893741;29;20507;-74
2023/09/20 11:20:14;;;;;;;7.20;1.63;;;;;;;21.41;93.67;100560.78;4890699;29;20044;-72
2023/09/20 11:22:41;;;;;;;7.80;2.58;;;;;;;21.31;92.31;100555.34;4886593;29;20060;-73
2023/09/20 11:25:07;;;;;;;6.45;2.05;;;;;;;21.30;93.01;100554.53;4886269;29;20048;-72
2023/09/20 11:27:34;;;;;;;7.53;2.30;;;;;;;21.23;91.89;100552.09;4885292;29;20395;-73
2023/09/20 11:30:08;;;;;;;5.00;2.53;;;;;;;21.24;90.86;100547.50;4885155;29;20088;-73
2023/09/20 11:32:34;;;;;;;2.70;1.27;;;;;;;21.20;91.98;100551.84;4885976;29;20051;-73
2023/09/20 11:35:00;;;;;;;7.15;1.90;;;;;;;21.20;92.81;100546.44;4887889;29;20472;-72
2023/09/20 11:37:25;;;;;;;3.92;1.58;;;;;;;21.21;92.41;100553.47;4889747;29;20068;-73
2023/09/20 11:39:53;;;;;;;4.82;1.15;;;;;;;21.20;91.77;100551.84;4889177;29;20464;-71
2023/09/20 11:42:37;;;;;;;1.52;1.10;;;;;;;21.18;91.07;100549.41;4888921;29;20032;-69
2023/09/20 11:45:05;;;;;;;4.68;1.42;;;;;;;21.09;90.98;100553.78;4889468;29;20041;-73
2023/09/20 11:47:33;;;;;;;5.47;1.88;;;;;;;21.04;91.05;100558.38;4889962;29;20044;-75
2023/09/20 11:49:59;;;;;;;4.85;1.60;;;;;;;20.91;90.98;100557.88;4889632;29;20027;-75
2023/09/20 11:52:25;;;;;;;2.85;1.77;;;;;;;20.87;92.36;100558.69;4889649;29;20040;-74
2023/09/20 11:54:55;;;;;;;4.43;1.35;;;;;;;20.89;91.21;100557.31;4889239;29;20040;-72
2023/09/20 11:57:23;;;;;;;8.32;1.48;;;;;;;20.84;91.07;100559.22;4889262;29;20032;-73
2023/09/20 11:59:49;;;;;;;4.47;1.90;;;;;;;20.90;92.35;100558.94;4889380;29;20028;-74
2023/09/20 12:02:14;;;;;;;3.70;1.10;;;;;;;20.98;91.05;100554.84;4872115;29;20028;-73